Hh East — V4EF3 — position and weather

sailwx.info

Track history (hours):
 
Tides and Currents Weather Stations Pressure Air Temp Water Temp Dewpoint Dewpoint Depression Visibility Wind Speed Wind Dir Waves Ship Positions

Hh East

Last reported at 2018-Jun-21 07:38 UTC. Time now 2018-Jun-21 08:35 UTC.
Position N 37°52' E 004°01'.

Length 127 m; draft 7.4 m.

Type: Ship. MMSI: 341771000.

Date/timePositionNaut miles runAvg speedWind from/ knotsBaromVisibWave heightAir tempDewpointWater temp
2018-Jun-21 07:38N 37°52' E 004°01'211.7
2018-Jun-21 07:27N 37°54' E 004°03'511.6
2018-Jun-21 07:00N 37°58' E 004°07'611.4
2018-Jun-21 06:29N 38°03' E 004°11'511.2
2018-Jun-21 06:00N 38°07' E 004°15'610.9
2018-Jun-21 05:29N 38°12' E 004°19'510.6
2018-Jun-21 05:00N 38°16' E 004°22'810.4
2018-Jun-21 04:12N 38°23' E 004°28'7310.2
2018-Jun-20 21:02N 39°23' E 005°22'110.8
2018-Jun-20 20:59N 39°24' E 005°22'510.9
2018-Jun-20 20:30N 39°28' E 005°26'510.8
2018-Jun-20 20:00N 39°33' E 005°30'12910.7
2018-Jun-20 07:56N 41°18' E 007°09'510.6
2018-Jun-20 07:29N 41°21' E 007°12'2210.5
2018-Jun-20 05:26N 41°39' E 007°29'410.3
2018-Jun-20 05:00N 41°43' E 007°32'510.2
2018-Jun-20 04:30N 41°47' E 007°36'510.2
2018-Jun-20 04:00N 41°51' E 007°39'1110.7
2018-Jun-20 02:59N 42°01' E 007°47'610.9
2018-Jun-20 02:28N 42°04' E 007°53'510.7
2018-Jun-20 02:00N 42°08' E 007°57'610.8
2018-Jun-20 01:28N 42°13' E 008°01'511.0
2018-Jun-20 01:00N 42°17' E 008°05'2210.9
2018-Jun-19 22:58N 42°35' E 008°23'510.5
2018-Jun-19 22:29N 42°39' E 008°27'510.7
2018-Jun-19 22:00N 42°44' E 008°31'510.9
2018-Jun-19 21:30N 42°48' E 008°35'510.9
2018-Jun-19 21:00N 42°53' E 008°40'510.7
2018-Jun-19 20:30N 42°57' E 008°44'510.7
2018-Jun-19 20:00N 43°01' E 008°48'510.7
2018-Jun-19 19:30N 43°06' E 008°52'510.7
2018-Jun-19 19:00N 43°10' E 008°56'510.7
2018-Jun-19 18:30N 43°14' E 009°00'510.5
2018-Jun-19 18:00N 43°19' E 009°04'510.2
2018-Jun-19 17:30N 43°23' E 009°09'510.1
2018-Jun-19 17:00N 43°27' E 009°12'510.2
2018-Jun-19 16:30N 43°31' E 009°16'510.3
2018-Jun-19 16:00N 43°36' E 009°20'510.3
2018-Jun-19 15:30N 43°40' E 009°25'510.6
2018-Jun-19 15:00N 43°44' E 009°29'510.6
2018-Jun-19 14:30N 43°48' E 009°34'510.8
2018-Jun-19 14:00N 43°52' E 009°40'510.7
2018-Jun-19 13:30N 43°55' E 009°45'510.5
2018-Jun-19 13:00N 43°59' E 009°50'5 9.4
2018-Jun-19 12:30N 44°04' E 009°51'2 4.9
2018-Jun-19 12:00N 44°06' E 009°51'0 0.0
2018-Jun-19 11:30N 44°06' E 009°51'0 0.0
2018-Jun-19 11:00N 44°06' E 009°51'0 0.0
2018-Jun-19 10:30N 44°06' E 009°51'0 0.0
2018-Jun-19 10:00N 44°06' E 009°51'0 0.0
2018-Jun-19 09:30N 44°06' E 009°51'0 0.0
2018-Jun-19 09:00N 44°06' E 009°51'0 0.0
2018-Jun-19 08:30N 44°06' E 009°51'0 0.0
2018-Jun-19 08:00N 44°06' E 009°51'0 0.0
2018-Jun-19 07:30N 44°06' E 009°51'0 0.0
2018-Jun-19 07:00N 44°06' E 009°51'0 0.0
2018-Jun-19 06:30N 44°06' E 009°51'0 0.2
2018-Jun-19 06:00N 44°06' E 009°51'3 5.2
2018-Jun-19 05:30N 44°04' E 009°52'1 1.3
2018-Jun-19 05:00N 44°03' E 009°52'0 0.3
2018-Jun-19 04:29N 44°03' E 009°52'0 0.1
2018-Jun-19 03:59N 44°03' E 009°52'0 0.0
2018-Jun-19 03:29N 44°03' E 009°52'0 0.0
2018-Jun-19 02:59N 44°03' E 009°52'0 0.0
2018-Jun-19 02:29N 44°03' E 009°52'0 0.0
2018-Jun-19 01:59N 44°03' E 009°52'0 0.0
2018-Jun-19 01:29N 44°03' E 009°52'0 0.0
2018-Jun-19 00:59N 44°03' E 009°52'0 0.0
2018-Jun-19 00:29N 44°03' E 009°52'0 0.0
2018-Jun-18 23:59N 44°03' E 009°52'0 0.0
2018-Jun-18 23:26N 44°03' E 009°52'0 0.1
2018-Jun-18 22:59N 44°03' E 009°52'0 0.0
2018-Jun-18 22:29N 44°03' E 009°52'0 0.0
2018-Jun-18 21:59N 44°03' E 009°52'0 0.1
2018-Jun-18 21:29N 44°03' E 009°52'0 0.1
2018-Jun-18 20:59N 44°03' E 009°52'0 0.0
2018-Jun-18 20:29N 44°03' E 009°52'0 0.0
2018-Jun-18 19:59N 44°03' E 009°52'0 0.0
2018-Jun-18 19:29N 44°03' E 009°52'0 0.0
2018-Jun-18 18:59N 44°03' E 009°52'0 0.0
2018-Jun-18 18:29N 44°03' E 009°52'0 0.0
2018-Jun-18 17:59N 44°03' E 009°52'0 0.2
2018-Jun-18 17:30N 44°03' E 009°52'1 2.5
2018-Jun-18 17:01N 44°03' E 009°54'4 7.0
2018-Jun-18 16:30N 43°59' E 009°53'510.9
2018-Jun-18 16:01N 43°57' E 009°46'510.5
2018-Jun-18 15:31N 43°57' E 009°38'510.8
2018-Jun-18 15:00N 43°60' E 009°32'510.8
2018-Jun-18 14:30N 44°03' E 009°26'510.6
2018-Jun-18 14:00N 44°07' E 009°21'510.5
2018-Jun-18 13:30N 44°10' E 009°15'510.3
2018-Jun-18 13:00N 44°13' E 009°10'510.2
2018-Jun-18 12:30N 44°16' E 009°04'510.0
2018-Jun-18 12:00N 44°20' E 008°59'4 8.3
2018-Jun-18 11:30N 44°23' E 008°56'3 5.2
2018-Jun-18 11:01N 44°24' E 008°53'0 0.0
2018-Jun-18 10:29N 44°24' E 008°53'0 0.0
2018-Jun-18 09:59N 44°24' E 008°53'0 0.0
2018-Jun-18 09:29N 44°24' E 008°53'0 0.0
2018-Jun-18 08:59N 44°24' E 008°53'0 0.0
2018-Jun-18 08:29N 44°24' E 008°53'0 0.0
2018-Jun-18 07:59N 44°24' E 008°53'0 0.0
2018-Jun-18 07:29N 44°24' E 008°53'0 0.0
2018-Jun-18 06:59N 44°24' E 008°53'0 0.0
2018-Jun-18 06:29N 44°24' E 008°53'0 0.0
2018-Jun-18 05:56N 44°24' E 008°53'0 0.0
2018-Jun-18 05:29N 44°24' E 008°53'0 0.0
2018-Jun-18 04:59N 44°24' E 008°53'0 0.0
2018-Jun-18 04:29N 44°24' E 008°53'0 0.0
2018-Jun-18 03:59N 44°24' E 008°53'0 0.0
2018-Jun-18 03:29N 44°24' E 008°53'0 0.0
2018-Jun-18 02:59N 44°24' E 008°53'0 0.0
2018-Jun-18 02:29N 44°24' E 008°53'0 0.0
2018-Jun-18 01:59N 44°24' E 008°53'0 0.0
2018-Jun-18 01:29N 44°24' E 008°53'0 0.0
2018-Jun-18 00:59N 44°24' E 008°53'0 0.0
2018-Jun-18 00:29N 44°24' E 008°53'0 0.0
2018-Jun-17 23:59N 44°24' E 008°53'0 0.0
2018-Jun-17 23:29N 44°24' E 008°53'0 0.0
2018-Jun-17 22:59N 44°24' E 008°53'0 0.0
2018-Jun-17 22:29N 44°24' E 008°53'0 0.0
2018-Jun-17 21:59N 44°24' E 008°53'0 0.0
2018-Jun-17 21:29N 44°24' E 008°53'0 0.0
2018-Jun-17 20:59N 44°24' E 008°53'0 0.0
2018-Jun-17 20:29N 44°24' E 008°53'0 0.0
2018-Jun-17 19:59N 44°24' E 008°53'0 0.0
2018-Jun-17 19:29N 44°24' E 008°53'0 0.0
2018-Jun-17 18:59N 44°24' E 008°53'0 0.0
2018-Jun-17 18:29N 44°24' E 008°53'0 0.0
2018-Jun-17 17:59N 44°24' E 008°53'0 0.0
2018-Jun-17 17:29N 44°24' E 008°53'0 0.0
2018-Jun-17 16:59N 44°24' E 008°53'0 0.0
2018-Jun-17 16:29N 44°24' E 008°53'0 0.0
2018-Jun-17 15:59N 44°24' E 008°53'0 0.0
2018-Jun-17 15:29N 44°24' E 008°53'0 0.0
2018-Jun-17 14:59N 44°24' E 008°53'0 0.0
2018-Jun-17 14:29N 44°24' E 008°53'0 0.0
2018-Jun-17 13:59N 44°24' E 008°53'0 0.0
2018-Jun-17 13:29N 44°24' E 008°53'0 0.0
2018-Jun-17 12:59N 44°24' E 008°53'0 0.0
2018-Jun-17 12:29N 44°24' E 008°53'0 0.0
2018-Jun-17 11:59N 44°24' E 008°53'0 0.0
2018-Jun-17 11:29N 44°24' E 008°53'0 0.0
2018-Jun-17 10:59N 44°24' E 008°53'0 0.0
2018-Jun-17 10:29N 44°24' E 008°53'0 0.0
2018-Jun-17 09:59N 44°24' E 008°53'0 0.0
2018-Jun-17 09:29N 44°24' E 008°53'0 0.0
2018-Jun-17 08:59N 44°24' E 008°53'0 0.0
2018-Jun-17 08:29N 44°24' E 008°53'0 0.0
2018-Jun-17 07:59N 44°24' E 008°53'0 0.0
2018-Jun-17 07:29N 44°24' E 008°53'0 0.0
2018-Jun-17 06:59N 44°24' E 008°53'0 0.0
2018-Jun-17 06:29N 44°24' E 008°53'0 0.0
2018-Jun-17 05:56N 44°24' E 008°53'0 0.0
2018-Jun-17 05:26N 44°24' E 008°53'0 0.0
2018-Jun-17 04:59N 44°24' E 008°53'0 0.0
2018-Jun-17 04:29N 44°24' E 008°53'0 0.0
2018-Jun-17 03:59N 44°24' E 008°53'0 0.0
2018-Jun-17 03:26N 44°24' E 008°53'0 0.0
2018-Jun-17 02:56N 44°24' E 008°53'0 0.0
2018-Jun-17 02:29N 44°24' E 008°53'0 0.0
2018-Jun-17 01:59N 44°24' E 008°53'0 0.0
2018-Jun-17 01:29N 44°24' E 008°53'0 0.0
2018-Jun-17 00:59N 44°24' E 008°53'0 0.0
2018-Jun-17 00:29N 44°24' E 008°53'0 0.0
2018-Jun-17 00:00N 44°24' E 008°53'2 4.3
2018-Jun-16 23:31N 44°24' E 008°56'3 6.6
2018-Jun-16 23:01N 44°21' E 008°59'5 9.2
2018-Jun-16 22:31N 44°16' E 008°58'510.7
2018-Jun-16 22:00N 44°11' E 008°55'510.6
2018-Jun-16 21:30N 44°07' E 008°52'510.5
2018-Jun-16 21:00N 44°02' E 008°48'510.7
2018-Jun-16 20:31N 43°58' E 008°44'610.9
2018-Jun-16 20:00N 43°53' E 008°40'511.0
2018-Jun-16 19:30N 43°48' E 008°36'611.2
2018-Jun-16 18:59N 43°43' E 008°32'511.1
2018-Jun-16 18:30N 43°39' E 008°28'611.2
2018-Jun-16 18:01N 43°34' E 008°24'611.3
2018-Jun-16 17:30N 43°29' E 008°20'611.2
2018-Jun-16 17:01N 43°25' E 008°16'611.1
2018-Jun-16 16:31N 43°20' E 008°12'611.2
2018-Jun-16 16:00N 43°15' E 008°08'511.0
2018-Jun-16 15:31N 43°10' E 008°04'610.9
2018-Jun-16 15:00N 43°06' E 008°00'511.0
2018-Jun-16 14:31N 43°01' E 007°57'611.0
2018-Jun-16 14:01N 42°56' E 007°53'610.9
2018-Jun-16 13:29N 42°51' E 007°49'510.7
2018-Jun-16 12:59N 42°47' E 007°45'510.6
2018-Jun-16 12:31N 42°43' E 007°41'510.3
2018-Jun-16 12:00N 42°38' E 007°38'510.2
2018-Jun-16 11:30N 42°34' E 007°34'510.3
2018-Jun-16 11:01N 42°29' E 007°31'510.5
2018-Jun-16 10:31N 42°25' E 007°27'510.5
2018-Jun-16 10:01N 42°20' E 007°24'510.5
2018-Jun-16 09:31N 42°16' E 007°20'610.6
2018-Jun-16 08:59N 42°11' E 007°16'510.8
2018-Jun-16 08:30N 42°06' E 007°13'510.6
2018-Jun-16 08:00N 42°02' E 007°09'611.0
2018-Jun-16 07:30N 41°57' E 007°05'3011.2
2018-Jun-16 04:52N 41°32' E 006°44'410.8
2018-Jun-16 04:30N 41°29' E 006°41'  
2018-Jun-11 23:46N 36°46' E 003°04'0 0.0
2018-Jun-11 23:19N 36°46' E 003°04'0 0.0
2018-Jun-11 22:58N 36°46' E 003°04'0 0.0
2018-Jun-11 22:16N 36°46' E 003°04'0 0.0
2018-Jun-11 21:55N 36°46' E 003°04'  
Track history (hours):
 
Tides and Currents Weather Stations Pressure Air Temp Water Temp Dewpoint Dewpoint Depression Visibility Wind Speed Wind Dir Waves Ship Positions

Hh East

Last reported at 2018-Jun-21 07:38 UTC. Time now 2018-Jun-21 08:35 UTC.
Position N 37°52' E 004°01'.

Length 127 m; draft 7.4 m.

Type: Ship. MMSI: 341771000.

Date/timePositionNaut miles runAvg speedWind from/ knotsBaromVisibWave heightAir tempDewpointWater temp
2018-Jun-21 07:38N 37°52' E 004°01'211.7
2018-Jun-21 07:27N 37°54' E 004°03'511.6
2018-Jun-21 07:00N 37°58' E 004°07'611.4
2018-Jun-21 06:29N 38°03' E 004°11'511.2
2018-Jun-21 06:00N 38°07' E 004°15'610.9
2018-Jun-21 05:29N 38°12' E 004°19'510.6
2018-Jun-21 05:00N 38°16' E 004°22'810.4
2018-Jun-21 04:12N 38°23' E 004°28'7310.2
2018-Jun-20 21:02N 39°23' E 005°22'110.8
2018-Jun-20 20:59N 39°24' E 005°22'510.9
2018-Jun-20 20:30N 39°28' E 005°26'510.8
2018-Jun-20 20:00N 39°33' E 005°30'12910.7
2018-Jun-20 07:56N 41°18' E 007°09'510.6
2018-Jun-20 07:29N 41°21' E 007°12'2210.5
2018-Jun-20 05:26N 41°39' E 007°29'410.3
2018-Jun-20 05:00N 41°43' E 007°32'510.2
2018-Jun-20 04:30N 41°47' E 007°36'510.2
2018-Jun-20 04:00N 41°51' E 007°39'1110.7
2018-Jun-20 02:59N 42°01' E 007°47'610.9
2018-Jun-20 02:28N 42°04' E 007°53'510.7
2018-Jun-20 02:00N 42°08' E 007°57'610.8
2018-Jun-20 01:28N 42°13' E 008°01'511.0
2018-Jun-20 01:00N 42°17' E 008°05'2210.9
2018-Jun-19 22:58N 42°35' E 008°23'510.5
2018-Jun-19 22:29N 42°39' E 008°27'510.7
2018-Jun-19 22:00N 42°44' E 008°31'510.9
2018-Jun-19 21:30N 42°48' E 008°35'510.9
2018-Jun-19 21:00N 42°53' E 008°40'510.7
2018-Jun-19 20:30N 42°57' E 008°44'510.7
2018-Jun-19 20:00N 43°01' E 008°48'510.7
2018-Jun-19 19:30N 43°06' E 008°52'510.7
2018-Jun-19 19:00N 43°10' E 008°56'510.7
2018-Jun-19 18:30N 43°14' E 009°00'510.5
2018-Jun-19 18:00N 43°19' E 009°04'510.2
2018-Jun-19 17:30N 43°23' E 009°09'510.1
2018-Jun-19 17:00N 43°27' E 009°12'510.2
2018-Jun-19 16:30N 43°31' E 009°16'510.3
2018-Jun-19 16:00N 43°36' E 009°20'510.3
2018-Jun-19 15:30N 43°40' E 009°25'510.6
2018-Jun-19 15:00N 43°44' E 009°29'510.6
2018-Jun-19 14:30N 43°48' E 009°34'510.8
2018-Jun-19 14:00N 43°52' E 009°40'510.7
2018-Jun-19 13:30N 43°55' E 009°45'510.5
2018-Jun-19 13:00N 43°59' E 009°50'5 9.4
2018-Jun-19 12:30N 44°04' E 009°51'2 4.9
2018-Jun-19 12:00N 44°06' E 009°51'0 0.0
2018-Jun-19 11:30N 44°06' E 009°51'0 0.0
2018-Jun-19 11:00N 44°06' E 009°51'0 0.0
2018-Jun-19 10:30N 44°06' E 009°51'0 0.0
2018-Jun-19 10:00N 44°06' E 009°51'0 0.0
2018-Jun-19 09:30N 44°06' E 009°51'0 0.0
2018-Jun-19 09:00N 44°06' E 009°51'0 0.0
2018-Jun-19 08:30N 44°06' E 009°51'0 0.0
2018-Jun-19 08:00N 44°06' E 009°51'0 0.0
2018-Jun-19 07:30N 44°06' E 009°51'0 0.0
2018-Jun-19 07:00N 44°06' E 009°51'0 0.0
2018-Jun-19 06:30N 44°06' E 009°51'0 0.2
2018-Jun-19 06:00N 44°06' E 009°51'3 5.2
2018-Jun-19 05:30N 44°04' E 009°52'1 1.3
2018-Jun-19 05:00N 44°03' E 009°52'0 0.3
2018-Jun-19 04:29N 44°03' E 009°52'0 0.1
2018-Jun-19 03:59N 44°03' E 009°52'0 0.0
2018-Jun-19 03:29N 44°03' E 009°52'0 0.0
2018-Jun-19 02:59N 44°03' E 009°52'0 0.0
2018-Jun-19 02:29N 44°03' E 009°52'0 0.0
2018-Jun-19 01:59N 44°03' E 009°52'0 0.0
2018-Jun-19 01:29N 44°03' E 009°52'0 0.0
2018-Jun-19 00:59N 44°03' E 009°52'0 0.0
2018-Jun-19 00:29N 44°03' E 009°52'0 0.0
2018-Jun-18 23:59N 44°03' E 009°52'0 0.0
2018-Jun-18 23:26N 44°03' E 009°52'0 0.1
2018-Jun-18 22:59N 44°03' E 009°52'0 0.0
2018-Jun-18 22:29N 44°03' E 009°52'0 0.0
2018-Jun-18 21:59N 44°03' E 009°52'0 0.1
2018-Jun-18 21:29N 44°03' E 009°52'0 0.1
2018-Jun-18 20:59N 44°03' E 009°52'0 0.0
2018-Jun-18 20:29N 44°03' E 009°52'0 0.0
2018-Jun-18 19:59N 44°03' E 009°52'0 0.0
2018-Jun-18 19:29N 44°03' E 009°52'0 0.0
2018-Jun-18 18:59N 44°03' E 009°52'0 0.0
2018-Jun-18 18:29N 44°03' E 009°52'0 0.0
2018-Jun-18 17:59N 44°03' E 009°52'0 0.2
2018-Jun-18 17:30N 44°03' E 009°52'1 2.5
2018-Jun-18 17:01N 44°03' E 009°54'4 7.0
2018-Jun-18 16:30N 43°59' E 009°53'510.9
2018-Jun-18 16:01N 43°57' E 009°46'510.5
2018-Jun-18 15:31N 43°57' E 009°38'510.8
2018-Jun-18 15:00N 43°60' E 009°32'510.8
2018-Jun-18 14:30N 44°03' E 009°26'510.6
2018-Jun-18 14:00N 44°07' E 009°21'510.5
2018-Jun-18 13:30N 44°10' E 009°15'510.3
2018-Jun-18 13:00N 44°13' E 009°10'510.2
2018-Jun-18 12:30N 44°16' E 009°04'510.0
2018-Jun-18 12:00N 44°20' E 008°59'4 8.3
2018-Jun-18 11:30N 44°23' E 008°56'3 5.2
2018-Jun-18 11:01N 44°24' E 008°53'0 0.0
2018-Jun-18 10:29N 44°24' E 008°53'0 0.0
2018-Jun-18 09:59N 44°24' E 008°53'0 0.0
2018-Jun-18 09:29N 44°24' E 008°53'0 0.0
2018-Jun-18 08:59N 44°24' E 008°53'0 0.0
2018-Jun-18 08:29N 44°24' E 008°53'0 0.0
2018-Jun-18 07:59N 44°24' E 008°53'0 0.0
2018-Jun-18 07:29N 44°24' E 008°53'0 0.0
2018-Jun-18 06:59N 44°24' E 008°53'0 0.0
2018-Jun-18 06:29N 44°24' E 008°53'0 0.0
2018-Jun-18 05:56N 44°24' E 008°53'0 0.0
2018-Jun-18 05:29N 44°24' E 008°53'0 0.0
2018-Jun-18 04:59N 44°24' E 008°53'0 0.0
2018-Jun-18 04:29N 44°24' E 008°53'0 0.0
2018-Jun-18 03:59N 44°24' E 008°53'0 0.0
2018-Jun-18 03:29N 44°24' E 008°53'0 0.0
2018-Jun-18 02:59N 44°24' E 008°53'0 0.0
2018-Jun-18 02:29N 44°24' E 008°53'0 0.0
2018-Jun-18 01:59N 44°24' E 008°53'0 0.0
2018-Jun-18 01:29N 44°24' E 008°53'0 0.0
2018-Jun-18 00:59N 44°24' E 008°53'0 0.0
2018-Jun-18 00:29N 44°24' E 008°53'0 0.0
2018-Jun-17 23:59N 44°24' E 008°53'0 0.0
2018-Jun-17 23:29N 44°24' E 008°53'0 0.0
2018-Jun-17 22:59N 44°24' E 008°53'0 0.0
2018-Jun-17 22:29N 44°24' E 008°53'0 0.0
2018-Jun-17 21:59N 44°24' E 008°53'0 0.0
2018-Jun-17 21:29N 44°24' E 008°53'0 0.0
2018-Jun-17 20:59N 44°24' E 008°53'0 0.0
2018-Jun-17 20:29N 44°24' E 008°53'0 0.0
2018-Jun-17 19:59N 44°24' E 008°53'0 0.0
2018-Jun-17 19:29N 44°24' E 008°53'0 0.0
2018-Jun-17 18:59N 44°24' E 008°53'0 0.0
2018-Jun-17 18:29N 44°24' E 008°53'0 0.0
2018-Jun-17 17:59N 44°24' E 008°53'0 0.0
2018-Jun-17 17:29N 44°24' E 008°53'0 0.0
2018-Jun-17 16:59N 44°24' E 008°53'0 0.0
2018-Jun-17 16:29N 44°24' E 008°53'0 0.0
2018-Jun-17 15:59N 44°24' E 008°53'0 0.0
2018-Jun-17 15:29N 44°24' E 008°53'0 0.0
2018-Jun-17 14:59N 44°24' E 008°53'0 0.0
2018-Jun-17 14:29N 44°24' E 008°53'0 0.0
2018-Jun-17 13:59N 44°24' E 008°53'0 0.0
2018-Jun-17 13:29N 44°24' E 008°53'0 0.0
2018-Jun-17 12:59N 44°24' E 008°53'0 0.0
2018-Jun-17 12:29N 44°24' E 008°53'0 0.0
2018-Jun-17 11:59N 44°24' E 008°53'0 0.0
2018-Jun-17 11:29N 44°24' E 008°53'0 0.0
2018-Jun-17 10:59N 44°24' E 008°53'0 0.0
2018-Jun-17 10:29N 44°24' E 008°53'0 0.0
2018-Jun-17 09:59N 44°24' E 008°53'0 0.0
2018-Jun-17 09:29N 44°24' E 008°53'0 0.0
2018-Jun-17 08:59N 44°24' E 008°53'0 0.0
2018-Jun-17 08:29N 44°24' E 008°53'0 0.0
2018-Jun-17 07:59N 44°24' E 008°53'0 0.0
2018-Jun-17 07:29N 44°24' E 008°53'0 0.0
2018-Jun-17 06:59N 44°24' E 008°53'0 0.0
2018-Jun-17 06:29N 44°24' E 008°53'0 0.0
2018-Jun-17 05:56N 44°24' E 008°53'0 0.0
2018-Jun-17 05:26N 44°24' E 008°53'0 0.0
2018-Jun-17 04:59N 44°24' E 008°53'0 0.0
2018-Jun-17 04:29N 44°24' E 008°53'0 0.0
2018-Jun-17 03:59N 44°24' E 008°53'0 0.0
2018-Jun-17 03:26N 44°24' E 008°53'0 0.0
2018-Jun-17 02:56N 44°24' E 008°53'0 0.0
2018-Jun-17 02:29N 44°24' E 008°53'0 0.0
2018-Jun-17 01:59N 44°24' E 008°53'0 0.0
2018-Jun-17 01:29N 44°24' E 008°53'0 0.0
2018-Jun-17 00:59N 44°24' E 008°53'0 0.0
2018-Jun-17 00:29N 44°24' E 008°53'0 0.0
2018-Jun-17 00:00N 44°24' E 008°53'2 4.3
2018-Jun-16 23:31N 44°24' E 008°56'3 6.6
2018-Jun-16 23:01N 44°21' E 008°59'5 9.2
2018-Jun-16 22:31N 44°16' E 008°58'510.7
2018-Jun-16 22:00N 44°11' E 008°55'510.6
2018-Jun-16 21:30N 44°07' E 008°52'510.5
2018-Jun-16 21:00N 44°02' E 008°48'510.7
2018-Jun-16 20:31N 43°58' E 008°44'610.9
2018-Jun-16 20:00N 43°53' E 008°40'511.0
2018-Jun-16 19:30N 43°48' E 008°36'611.2
2018-Jun-16 18:59N 43°43' E 008°32'511.1
2018-Jun-16 18:30N 43°39' E 008°28'611.2
2018-Jun-16 18:01N 43°34' E 008°24'611.3
2018-Jun-16 17:30N 43°29' E 008°20'611.2
2018-Jun-16 17:01N 43°25' E 008°16'611.1
2018-Jun-16 16:31N 43°20' E 008°12'611.2
2018-Jun-16 16:00N 43°15' E 008°08'511.0
2018-Jun-16 15:31N 43°10' E 008°04'610.9
2018-Jun-16 15:00N 43°06' E 008°00'511.0
2018-Jun-16 14:31N 43°01' E 007°57'611.0
2018-Jun-16 14:01N 42°56' E 007°53'610.9
2018-Jun-16 13:29N 42°51' E 007°49'510.7
2018-Jun-16 12:59N 42°47' E 007°45'510.6
2018-Jun-16 12:31N 42°43' E 007°41'510.3
2018-Jun-16 12:00N 42°38' E 007°38'510.2
2018-Jun-16 11:30N 42°34' E 007°34'510.3
2018-Jun-16 11:01N 42°29' E 007°31'510.5
2018-Jun-16 10:31N 42°25' E 007°27'510.5
2018-Jun-16 10:01N 42°20' E 007°24'510.5
2018-Jun-16 09:31N 42°16' E 007°20'610.6
2018-Jun-16 08:59N 42°11' E 007°16'510.8
2018-Jun-16 08:30N 42°06' E 007°13'510.6
2018-Jun-16 08:00N 42°02' E 007°09'611.0
2018-Jun-16 07:30N 41°57' E 007°05'3011.2
2018-Jun-16 04:52N 41°32' E 006°44'410.8
2018-Jun-16 04:30N 41°29' E 006°41'  
2018-Jun-11 23:46N 36°46' E 003°04'0 0.0
2018-Jun-11 23:19N 36°46' E 003°04'0 0.0
2018-Jun-11 22:58N 36°46' E 003°04'0 0.0
2018-Jun-11 22:16N 36°46' E 003°04'0 0.0
2018-Jun-11 21:55N 36°46' E 003°04'  

Dump ship's entire track history